Time;durP1;ratioP1;P1;durP2;ratioP2;P2;SDS_P1;SDS_P2;PMS_P1;PMS_P2;Temp;Humidity;BMP_temperature;BMP_pressure;BME280_temperature;BME280_humidity;BME280_pressure;Samples;Min_cycle;Max_cycle;Signal;HPM_P1;HPM_P2
2020/12/24 00:01:19;;;;;;;15.02;1.90;;;9.00;99.90;;;;;;5067885;28;20400;-68
2020/12/24 00:03:45;;;;;;;11.02;3.83;;;9.00;99.90;;;;;;5062995;28;20039;-68
2020/12/24 00:06:10;;;;;;;5.18;1.95;;;9.00;99.90;;;;;;5066688;28;20572;-69
2020/12/24 00:08:36;;;;;;;4.78;1.75;;;8.90;99.90;;;;;;5065796;28;20643;-68
2020/12/24 00:11:02;;;;;;;5.53;1.80;;;8.90;99.90;;;;;;5062081;28;20039;-69
2020/12/24 00:13:28;;;;;;;11.82;3.15;;;8.90;99.90;;;;;;5071916;28;20056;-68
2020/12/24 00:15:53;;;;;;;6.32;2.00;;;8.90;99.90;;;;;;5070215;28;20063;-68
2020/12/24 00:18:19;;;;;;;7.15;2.53;;;8.90;99.90;;;;;;5061847;28;20036;-69
2020/12/24 00:20:46;;;;;;;4.72;1.38;;;8.80;99.90;;;;;;5063549;28;20032;-69
2020/12/24 00:23:12;;;;;;;2.78;0.95;;;8.80;99.90;;;;;;5068546;28;20036;-69
2020/12/24 00:25:38;;;;;;;5.55;1.30;;;8.90;99.90;;;;;;5068906;28;20017;-68
2020/12/24 00:28:03;;;;;;;5.05;1.25;;;8.90;99.90;;;;;;5060947;28;20850;-69
2020/12/24 00:30:29;;;;;;;6.93;1.08;;;8.90;99.90;;;;;;5066976;28;20078;-69
2020/12/24 00:32:54;;;;;;;8.30;1.00;;;8.90;99.90;;;;;;5064390;28;20547;-68
2020/12/24 00:35:20;;;;;;;4.13;1.20;;;9.00;99.90;;;;;;5062945;28;20114;-68
2020/12/24 00:37:45;;;;;;;6.38;1.05;;;9.00;99.90;;;;;;5064075;28;20029;-68
2020/12/24 00:40:11;;;;;;;7.70;1.35;;;9.00;99.90;;;;;;5062939;28;20051;-67
2020/12/24 00:42:36;;;;;;;9.60;1.33;;;9.00;99.90;;;;;;5060957;28;20534;-68
2020/12/24 00:45:02;;;;;;;5.10;0.95;;;9.00;99.90;;;;;;5062369;28;20048;-67
2020/12/24 00:47:27;;;;;;;3.45;0.95;;;9.00;99.90;;;;;;5059846;28;20024;-68
2020/12/24 00:49:54;;;;;;;1.88;0.88;;;9.00;99.90;;;;;;5061060;28;20059;-68
2020/12/24 00:52:19;;;;;;;6.95;0.95;;;9.00;99.90;;;;;;5063172;28;20043;-68
2020/12/24 00:54:45;;;;;;;5.97;1.30;;;9.00;99.90;;;;;;5061362;28;20384;-68
2020/12/24 00:57:10;;;;;;;7.78;1.15;;;9.00;99.90;;;;;;5066157;28;20020;-68
2020/12/24 00:59:36;;;;;;;6.63;1.15;;;9.00;99.90;;;;;;5059801;28;20025;-68
2020/12/24 01:02:02;;;;;;;2.72;0.95;;;9.00;99.90;;;;;;5064134;28;20066;-68
2020/12/24 01:04:28;;;;;;;13.15;2.67;;;9.00;99.90;;;;;;5062063;28;20436;-68
2020/12/24 01:06:53;;;;;;;4.45;1.08;;;9.00;99.90;;;;;;5067998;28;20028;-68
2020/12/24 01:09:19;;;;;;;8.18;1.30;;;8.90;99.90;;;;;;5062253;28;20460;-68
2020/12/24 01:11:44;;;;;;;6.15;2.17;;;8.80;99.90;;;;;;5068579;28;20036;-68
2020/12/24 01:14:10;;;;;;;5.45;1.42;;;8.80;99.90;;;;;;5061318;28;20024;-68
2020/12/24 01:16:36;;;;;;;14.07;2.10;;;8.80;99.90;;;;;;5061292;28;20039;-68
2020/12/24 01:19:02;;;;;;;5.95;1.30;;;8.80;99.90;;;;;;5058641;28;20033;-68
2020/12/24 01:21:28;;;;;;;7.60;1.13;;;8.80;99.90;;;;;;5062993;28;20028;-68
2020/12/24 01:23:54;;;;;;;5.30;1.05;;;8.80;99.90;;;;;;5068482;28;20025;-68
2020/12/24 01:26:20;;;;;;;3.55;1.20;;;8.80;99.90;;;;;;5056768;28;20063;-68
2020/12/24 01:28:46;;;;;;;5.03;0.88;;;8.80;99.90;;;;;;5056639;28;20039;-69
2020/12/24 01:31:11;;;;;;;6.97;1.25;;;8.80;99.90;;;;;;5060488;28;20044;-67
2020/12/24 01:33:37;;;;;;;10.95;1.15;;;8.80;99.90;;;;;;5059326;28;20016;-68
2020/12/24 01:36:02;;;;;;;7.68;0.98;;;8.90;99.90;;;;;;5061306;28;20052;-68
2020/12/24 01:38:28;;;;;;;8.18;1.40;;;8.90;99.90;;;;;;5060230;28;20072;-68
2020/12/24 01:41:03;;;;;;;6.55;0.95;;;8.90;99.90;;;;;;5067319;28;20021;-68
2020/12/24 01:43:29;;;;;;;2.80;1.15;;;8.90;99.90;;;;;;5056910;28;20044;-67
2020/12/24 01:45:56;;;;;;;6.60;1.58;;;8.90;99.90;;;;;;5063082;28;20522;-68
2020/12/24 01:48:23;;;;;;;3.70;1.00;;;8.90;99.90;;;;;;5067670;28;20047;-68
2020/12/24 01:50:49;;;;;;;5.57;0.90;;;8.90;99.90;;;;;;5063458;28;20028;-68
2020/12/24 01:53:20;;;;;;;6.30;1.25;;;8.90;99.90;;;;;;5064324;28;20431;-68
2020/12/24 01:55:46;;;;;;;;;;;8.90;99.90;;;;;;5064209;28;20094;-68
2020/12/24 01:58:12;;;;;;;5.03;0.73;;;8.90;99.90;;;;;;5063546;28;19912;-68
2020/12/24 02:00:37;;;;;;;4.82;0.90;;;8.80;99.90;;;;;;5064209;28;20090;-69
2020/12/24 02:03:03;;;;;;;7.97;1.17;;;8.80;99.90;;;;;;5061455;28;20063;-67
2020/12/24 02:05:28;;;;;;;5.78;1.13;;;8.80;99.90;;;;;;5066425;28;20062;-68
2020/12/24 02:07:54;;;;;;;4.85;1.30;;;8.80;99.90;;;;;;5062721;28;20079;-68
2020/12/24 02:10:23;;;;;;;7.38;1.20;;;8.80;99.90;;;;;;5063562;28;20430;-68
2020/12/24 02:12:48;;;;;;;4.80;1.38;;;8.80;99.90;;;;;;5052087;28;20044;-68
2020/12/24 02:15:14;;;;;;;4.78;0.70;;;8.80;99.90;;;;;;5062517;28;20050;-67
2020/12/24 02:17:39;;;;;;;6.25;0.98;;;8.80;99.90;;;;;;5070127;28;20389;-68
2020/12/24 02:20:05;;;;;;;5.53;1.48;;;8.80;99.90;;;;;;5063600;28;20437;-68
2020/12/24 02:22:31;;;;;;;7.85;0.95;;;8.80;99.90;;;;;;5062680;28;20424;-68
2020/12/24 02:24:57;;;;;;;6.70;0.90;;;8.80;99.90;;;;;;5061624;28;20040;-67
2020/12/24 02:27:22;;;;;;;5.88;1.80;;;8.70;99.90;;;;;;5058559;28;20032;-69
2020/12/24 02:29:48;;;;;;;5.47;1.20;;;8.80;99.90;;;;;;5067002;28;20039;-69
2020/12/24 02:32:13;;;;;;;6.57;1.35;;;8.70;99.90;;;;;;5064156;28;20469;-68
2020/12/24 02:34:39;;;;;;;7.38;1.30;;;8.70;99.90;;;;;;5066054;28;20056;-67
2020/12/24 02:37:06;;;;;;;2.97;0.70;;;8.60;99.90;;;;;;5058041;28;20029;-67
2020/12/24 02:39:32;;;;;;;10.55;1.33;;;8.60;99.90;;;;;;5065417;28;20400;-67
2020/12/24 02:41:57;;;;;;;2.90;0.90;;;8.60;99.90;;;;;;5067182;28;20031;-69
2020/12/24 02:44:23;;;;;;;8.48;1.05;;;8.60;99.90;;;;;;5056348;28;20041;-69
2020/12/24 02:46:48;;;;;;;9.38;1.25;;;8.50;99.90;;;;;;5063377;28;20059;-67
2020/12/24 02:49:15;;;;;;;5.28;1.33;;;8.50;99.90;;;;;;5065278;28;20803;-67
2020/12/24 02:51:40;;;;;;;4.20;1.25;;;8.50;99.90;;;;;;5057502;28;20110;-67
2020/12/24 02:54:06;;;;;;;6.65;1.30;;;8.50;99.90;;;;;;5063883;28;20024;-67
2020/12/24 02:56:31;;;;;;;6.63;1.75;;;8.50;99.90;;;;;;5063212;28;20483;-67
2020/12/24 02:58:57;;;;;;;5.80;1.73;;;8.50;99.90;;;;;;5063711;28;20070;-68
2020/12/24 03:01:22;;;;;;;11.20;3.10;;;8.60;99.90;;;;;;5063621;28;20071;-67
2020/12/24 03:03:48;;;;;;;5.53;1.40;;;8.60;99.90;;;;;;5067753;28;20040;-68
2020/12/24 03:06:14;;;;;;;6.05;1.33;;;8.70;99.90;;;;;;5055552;28;20096;-68
2020/12/24 03:08:39;;;;;;;7.63;1.85;;;8.60;99.90;;;;;;5062970;28;20487;-67
2020/12/24 03:11:05;;;;;;;5.57;1.70;;;8.60;99.90;;;;;;5061250;28;20063;-68
2020/12/24 03:13:30;;;;;;;15.00;2.17;;;8.60;99.90;;;;;;5067495;28;20077;-67
2020/12/24 03:15:56;;;;;;;16.40;3.92;;;8.70;99.90;;;;;;5059712;28;20027;-67
2020/12/24 03:18:21;;;;;;;4.28;1.63;;;8.60;99.90;;;;;;5059103;28;20037;-69
2020/12/24 03:20:47;;;;;;;7.40;2.13;;;8.60;99.90;;;;;;5060259;28;20032;-69
2020/12/24 03:23:12;;;;;;;12.45;1.77;;;8.50;99.90;;;;;;5064573;28;20020;-69
2020/12/24 03:25:38;;;;;;;10.13;1.88;;;8.50;99.90;;;;;;5060547;28;20027;-69
2020/12/24 03:28:03;;;;;;;8.05;1.95;;;8.50;99.90;;;;;;5060257;28;20033;-69
2020/12/24 03:30:29;;;;;;;14.10;2.17;;;8.60;99.90;;;;;;5062464;28;20037;-69
2020/12/24 03:32:54;;;;;;;7.53;1.83;;;8.60;99.90;;;;;;5059574;28;20037;-68
2020/12/24 03:35:20;;;;;;;6.97;1.75;;;8.60;99.90;;;;;;5070479;28;20020;-69
2020/12/24 03:37:45;;;;;;;14.10;2.13;;;8.60;99.90;;;;;;5065584;28;20031;-69
2020/12/24 03:40:11;;;;;;;12.35;2.08;;;8.60;99.90;;;;;;5063803;28;20132;-69
2020/12/24 03:42:36;;;;;;;6.82;1.48;;;8.60;99.90;;;;;;5063719;28;20426;-69
2020/12/24 03:45:02;;;;;;;11.18;2.25;;;8.70;99.90;;;;;;5066397;28;20094;-69
2020/12/24 03:47:28;;;;;;;10.45;2.35;;;8.60;99.90;;;;;;5066469;28;20025;-67
2020/12/24 03:49:53;;;;;;;13.88;2.17;;;8.70;99.90;;;;;;5068085;28;20066;-67
2020/12/24 03:52:19;;;;;;;9.20;1.98;;;8.60;99.90;;;;;;5061029;28;20040;-68
2020/12/24 03:54:44;;;;;;;9.75;2.15;;;8.70;99.90;;;;;;5062603;28;20035;-67
2020/12/24 03:57:10;;;;;;;14.30;2.35;;;8.70;99.90;;;;;;5072284;28;20207;-69
2020/12/24 03:59:36;;;;;;;10.65;1.88;;;8.60;99.90;;;;;;5062357;28;20025;-69
2020/12/24 04:02:01;;;;;;;9.98;1.85;;;8.60;99.90;;;;;;5071942;28;20310;-69
2020/12/24 04:04:27;;;;;;;13.18;1.50;;;8.70;99.90;;;;;;5064273;28;20029;-69
2020/12/24 04:06:52;;;;;;;7.35;2.00;;;8.70;99.90;;;;;;5062620;28;20459;-69
2020/12/24 04:09:18;;;;;;;1.63;1.10;;;8.60;99.90;;;;;;5069545;28;20079;-69
2020/12/24 04:11:43;;;;;;;0.90;0.75;;;8.50;99.90;;;;;;5063649;28;20033;-69
2020/12/24 04:14:09;;;;;;;1.30;0.40;;;8.10;99.90;;;;;;5076688;28;20020;-69
2020/12/24 04:16:34;;;;;;;0.68;0.50;;;7.70;99.90;;;;;;5075206;28;20063;-67
2020/12/24 04:19:00;;;;;;;0.32;0.32;;;7.40;99.90;;;;;;5084505;28;20066;-68
2020/12/24 04:21:25;;;;;;;1.02;0.30;;;7.10;99.90;;;;;;5060665;28;20394;-67
2020/12/24 04:23:51;;;;;;;1.00;0.50;;;6.80;99.90;;;;;;5068491;28;20148;-68
2020/12/24 04:26:21;;;;;;;3.47;0.60;;;6.60;99.90;;;;;;5064276;28;20028;-67
2020/12/24 04:28:47;;;;;;;6.20;0.55;;;6.40;99.90;;;;;;5066746;28;20469;-67
2020/12/24 04:31:12;;;;;;;0.50;0.50;;;6.30;99.90;;;;;;5059541;28;20047;-67
2020/12/24 04:33:39;;;;;;;1.17;0.45;;;6.20;99.90;;;;;;5069428;28;20040;-67
2020/12/24 04:36:05;;;;;;;2.65;0.85;;;6.10;99.90;;;;;;5070003;28;20028;-67
2020/12/24 04:38:31;;;;;;;0.90;0.55;;;6.00;99.90;;;;;;5066663;28;20028;-69
2020/12/24 04:40:58;;;;;;;2.17;0.70;;;6.10;99.90;;;;;;5071298;28;20032;-67
2020/12/24 04:43:26;;;;;;;0.57;0.40;;;5.90;99.90;;;;;;5065409;28;20080;-67
2020/12/24 04:45:52;;;;;;;0.95;0.52;;;5.70;99.90;;;;;;5061291;28;20037;-68
2020/12/24 04:48:19;;;;;;;2.92;0.70;;;5.70;99.90;;;;;;5059519;28;20038;-67
2020/12/24 04:50:50;;;;;;;5.15;0.60;;;5.70;99.90;;;;;;5062586;28;20024;-67
2020/12/24 04:53:17;;;;;;;1.38;0.60;;;5.60;99.90;;;;;;5059163;28;20033;-67
2020/12/24 04:55:42;;;;;;;2.45;0.50;;;5.60;99.90;;;;;;5072204;28;20035;-67
2020/12/24 04:58:12;;;;;;;0.45;0.45;;;5.60;99.90;;;;;;5067149;28;20127;-67
2020/12/24 05:00:39;;;;;;;1.75;0.70;;;5.50;99.90;;;;;;5073187;28;20426;-68
2020/12/24 05:03:09;;;;;;;1.02;0.30;;;5.50;99.90;;;;;;5065519;28;20059;-68
2020/12/24 05:05:37;;;;;;;1.88;0.40;;;5.40;99.90;;;;;;5069828;28;20115;-67
2020/12/24 05:08:05;;;;;;;0.68;0.22;;;5.30;99.90;;;;;;5074510;28;20055;-68
2020/12/24 05:10:31;;;;;;;0.10;0.10;;;5.30;99.90;;;;;;5066732;28;20461;-68
2020/12/24 05:12:58;;;;;;;0.13;0.13;;;5.20;99.90;;;;;;5068857;28;20067;-68
2020/12/24 05:15:31;;;;;;;0.20;0.20;;;5.10;99.90;;;;;;5065836;28;21209;-68
2020/12/24 05:18:14;;;;;;;2.50;0.30;;;5.00;99.90;;;;;;5064752;28;20028;-68
2020/12/24 05:20:40;;;;;;;4.25;0.17;;;5.10;99.90;;;;;;5073987;28;20040;-67
2020/12/24 05:23:20;;;;;;;0.38;0.20;;;5.00;99.90;;;;;;5068394;28;20070;-68
2020/12/24 05:25:48;;;;;;;1.27;0.20;;;5.00;99.90;;;;;;5083295;28;20744;-69
2020/12/24 05:28:21;;;;;;;1.17;0.22;;;4.90;99.90;;;;;;5072229;28;20055;-69
2020/12/24 05:30:48;;;;;;;0.20;0.20;;;4.80;99.90;;;;;;5080892;28;20024;-68
2020/12/24 05:33:32;;;;;;;0.52;0.20;;;4.70;99.90;;;;;;5056917;28;20512;-69
2020/12/24 05:36:20;;;;;;;1.42;0.30;;;4.70;99.90;;;;;;5067975;28;20028;-68
2020/12/24 05:38:47;;;;;;;0.10;0.10;;;4.60;99.90;;;;;;5060897;28;20033;-67
2020/12/24 05:41:29;;;;;;;0.47;0.32;;;4.60;99.90;;;;;;5070027;28;20029;-67
2020/12/24 05:43:56;;;;;;;0.50;0.30;;;4.60;99.90;;;;;;5065156;28;20584;-68
2020/12/24 05:46:23;;;;;;;0.10;0.10;;;4.60;99.90;;;;;;5065044;28;20166;-68
2020/12/24 05:48:48;;;;;;;0.25;0.25;;;4.60;99.90;;;;;;5062028;28;20506;-67
2020/12/24 05:51:18;;;;;;;1.17;0.10;;;4.60;99.90;;;;;;5071955;28;20037;-69
2020/12/24 05:53:45;;;;;;;0.40;0.20;;;4.60;99.90;;;;;;5061590;28;20043;-67
2020/12/24 05:56:20;;;;;;;0.40;0.30;;;4.60;99.90;;;;;;5070968;28;20281;-67
2020/12/24 05:58:47;;;;;;;0.30;0.30;;;4.50;99.90;;;;;;5072881;28;20387;-67
2020/12/24 06:01:14;;;;;;;0.65;0.40;;;4.60;99.90;;;;;;5079474;28;20481;-67
2020/12/24 06:04:00;;;;;;;1.00;0.30;;;4.60;99.90;;;;;;5076840;28;20020;-67
2020/12/24 06:06:42;;;;;;;1.33;0.50;;;4.60;99.90;;;;;;5061189;28;20031;-69
2020/12/24 06:09:13;;;;;;;0.52;0.30;;;4.60;99.90;;;;;;5066768;28;20348;-67
2020/12/24 06:11:50;;;;;;;2.30;0.60;;;4.60;99.90;;;;;;5068187;28;20041;-67
2020/12/24 06:14:30;;;;;;;0.50;0.50;;;4.60;99.90;;;;;;5079491;28;20032;-68
2020/12/24 06:17:02;;;;;;;0.75;0.30;;;4.60;99.90;;;;;;5073238;28;20446;-67
2020/12/24 06:19:28;;;;;;;0.50;0.30;;;4.60;99.90;;;;;;5072843;28;20024;-67
2020/12/24 06:21:54;;;;;;;0.57;0.30;;;4.60;99.90;;;;;;5074733;28;20039;-67
2020/12/24 06:24:20;;;;;;;0.50;0.32;;;4.60;99.90;;;;;;5070720;28;20055;-67
2020/12/24 06:26:54;;;;;;;0.20;0.20;;;4.60;99.90;;;;;;5083280;28;20028;-67
2020/12/24 06:29:21;;;;;;;1.23;0.40;;;4.60;99.90;;;;;;5071630;28;20361;-68
2020/12/24 06:31:48;;;;;;;0.20;0.20;;;4.60;99.90;;;;;;5076135;28;20035;-67
2020/12/24 06:34:21;;;;;;;0.57;0.30;;;4.70;99.90;;;;;;5081069;28;20099;-67
2020/12/24 06:36:47;;;;;;;0.57;0.40;;;4.70;99.90;;;;;;5070647;28;20103;-67
2020/12/24 06:39:13;;;;;;;0.47;0.47;;;4.70;99.90;;;;;;5085913;28;20416;-69
2020/12/24 06:41:41;;;;;;;1.25;0.20;;;4.60;99.90;;;;;;5073320;28;20040;-67
2020/12/24 06:44:10;;;;;;;0.85;0.40;;;4.60;99.90;;;;;;5083717;28;20090;-67
2020/12/24 06:46:55;;;;;;;1.95;0.30;;;4.60;99.90;;;;;;5070559;28;20392;-67
2020/12/24 06:49:31;;;;;;;1.13;0.30;;;4.60;99.90;;;;;;5079001;28;20435;-67
2020/12/24 06:51:57;;;;;;;1.23;0.40;;;4.60;99.90;;;;;;5070281;28;20044;-67
2020/12/24 06:54:27;;;;;;;0.40;0.40;;;4.50;99.90;;;;;;5073625;28;20027;-67
2020/12/24 06:57:21;;;;;;;0.75;0.47;;;4.60;99.90;;;;;;5072717;28;20043;-68
2020/12/24 06:59:48;;;;;;;0.30;0.30;;;4.60;99.90;;;;;;5081086;28;20032;-68
2020/12/24 07:02:24;;;;;;;3.30;1.05;;;4.60;99.90;;;;;;5070019;28;20024;-67
2020/12/24 07:04:50;;;;;;;0.55;0.40;;;4.70;99.90;;;;;;5070270;28;20025;-67
2020/12/24 07:07:45;;;;;;;1.85;1.08;;;4.70;99.90;;;;;;5079238;28;20063;-68
2020/12/24 07:10:45;;;;;;;0.38;0.30;;;4.70;99.90;;;;;;5073929;28;20168;-68
2020/12/24 07:13:29;;;;;;;0.20;0.20;;;4.70;99.90;;;;;;5078323;28;20036;-68
2020/12/24 07:15:55;;;;;;;0.30;0.30;;;4.80;99.90;;;;;;5079165;28;20073;-68
2020/12/24 07:18:23;;;;;;;0.50;0.40;;;4.80;99.90;;;;;;5078986;28;20384;-68
2020/12/24 07:20:50;;;;;;;0.30;0.30;;;4.80;99.90;;;;;;5078149;28;20067;-68
2020/12/24 07:23:27;;;;;;;0.75;0.40;;;4.80;99.90;;;;;;5083035;28;20027;-67
2020/12/24 07:25:53;;;;;;;2.53;2.25;;;4.80;99.90;;;;;;5082289;28;20024;-68
2020/12/24 07:28:19;;;;;;;1.70;1.60;;;4.80;99.90;;;;;;5091519;28;20135;-67
2020/12/24 07:31:01;;;;;;;2.75;0.60;;;4.80;99.90;;;;;;5087996;28;20093;-69
2020/12/24 07:33:28;;;;;;;3.20;1.52;;;4.80;99.90;;;;;;5075062;28;20391;-68
2020/12/24 07:35:54;;;;;;;0.35;0.30;;;4.80;99.90;;;;;;5083982;28;20520;-68
2020/12/24 07:38:21;;;;;;;1.48;0.60;;;4.90;99.90;;;;;;5086173;28;20063;-68
2020/12/24 07:40:47;;;;;;;2.50;1.40;;;4.80;99.90;;;;;;5088443;28;20406;-68
2020/12/24 07:43:14;;;;;;;1.02;0.80;;;4.90;99.90;;;;;;5088007;28;20051;-68
2020/12/24 07:45:41;;;;;;;2.65;2.17;;;4.90;99.90;;;;;;5081945;28;20045;-68
2020/12/24 07:48:10;;;;;;;4.18;1.80;;;4.90;99.90;;;;;;5088731;28;20040;-71
2020/12/24 07:50:36;;;;;;;3.85;2.35;;;4.90;99.90;;;;;;5084710;28;20020;-67
2020/12/24 07:53:02;;;;;;;2.78;2.30;;;4.90;99.90;;;;;;5086270;28;20180;-68
2020/12/24 07:55:27;;;;;;;9.23;3.88;;;4.90;99.90;;;;;;5083326;28;20020;-68
2020/12/24 07:58:08;;;;;;;16.27;3.25;;;5.00;99.90;;;;;;5087543;28;20027;-68
2020/12/24 08:00:40;;;;;;;16.50;3.38;;;5.00;99.90;;;;;;5076420;28;20023;-68
2020/12/24 08:03:06;;;;;;;10.60;3.00;;;4.90;99.90;;;;;;5086714;28;20020;-68
2020/12/24 08:05:32;;;;;;;4.82;2.92;;;4.90;99.90;;;;;;5082094;28;20086;-67
2020/12/24 08:07:57;;;;;;;3.67;2.50;;;4.90;99.90;;;;;;5080672;28;20052;-68
2020/12/24 08:10:23;;;;;;;3.08;2.83;;;4.90;99.90;;;;;;5079610;28;20377;-68
2020/12/24 08:12:49;;;;;;;4.55;2.83;;;4.90;99.90;;;;;;5078336;28;20048;-67
2020/12/24 08:15:17;;;;;;;9.68;3.35;;;4.80;99.90;;;;;;5069777;28;20032;-67
2020/12/24 08:17:57;;;;;;;4.03;2.97;;;4.90;99.90;;;;;;5059948;28;20033;-67
2020/12/24 08:20:33;;;;;;;4.65;3.30;;;4.90;99.90;;;;;;5062553;28;20108;-67
2020/12/24 08:23:09;;;;;;;4.68;3.45;;;4.90;99.90;;;;;;5059485;28;20119;-67
2020/12/24 08:25:35;;;;;;;6.18;2.78;;;4.90;99.90;;;;;;5070466;28;20103;-66
2020/12/24 08:28:02;;;;;;;5.60;3.72;;;4.90;99.90;;;;;;5078280;28;20107;-67
2020/12/24 08:30:28;;;;;;;6.50;3.47;;;4.90;99.90;;;;;;5071670;28;20082;-67
2020/12/24 08:32:55;;;;;;;4.75;3.40;;;4.90;99.90;;;;;;5063339;28;20036;-67
2020/12/24 08:35:20;;;;;;;3.55;2.78;;;4.90;99.90;;;;;;5061903;28;20089;-67
2020/12/24 08:37:47;;;;;;;4.10;3.75;;;4.90;99.90;;;;;;5060237;28;20021;-67
2020/12/24 08:40:24;;;;;;;8.13;6.22;;;5.00;99.90;;;;;;5054446;28;20021;-67
2020/12/24 08:42:57;;;;;;;3.05;2.83;;;4.90;99.90;;;;;;5062176;28;20036;-67
2020/12/24 08:45:23;;;;;;;6.15;4.18;;;4.90;99.90;;;;;;5089987;28;20054;-67
2020/12/24 08:47:49;;;;;;;5.82;4.07;;;4.90;99.90;;;;;;5067311;28;20111;-67
2020/12/24 08:50:14;;;;;;;7.85;6.68;;;4.90;99.90;;;;;;5057876;28;20075;-67
2020/12/24 08:52:43;;;;;;;9.65;4.50;;;4.90;99.90;;;;;;5061363;28;20037;-67
2020/12/24 08:55:10;;;;;;;13.30;5.93;;;5.00;99.90;;;;;;5056919;28;20530;-66
2020/12/24 08:57:37;;;;;;;6.22;3.00;;;5.00;99.90;;;;;;5076193;28;21344;-66
2020/12/24 09:00:07;;;;;;;8.57;3.17;;;5.00;99.90;;;;;;5061550;28;20031;-66
2020/12/24 09:02:35;;;;;;;7.03;4.30;;;5.10;99.90;;;;;;5068715;28;20079;-66
2020/12/24 09:05:02;;;;;;;12.55;7.18;;;5.10;99.90;;;;;;5064259;28;20025;-66
2020/12/24 09:07:29;;;;;;;28.95;10.35;;;5.10;99.90;;;;;;5057722;28;20162;-66
2020/12/24 09:10:04;;;;;;;168.68;39.83;;;5.20;99.90;;;;;;5067335;28;20033;-67
2020/12/24 09:12:30;;;;;;;18.60;6.30;;;5.10;99.90;;;;;;5066647;28;20043;-68
2020/12/24 09:15:00;;;;;;;63.45;15.75;;;5.10;99.90;;;;;;5075088;28;20024;-67
2020/12/24 09:17:26;;;;;;;;;;;5.10;99.90;;;;;;5060965;28;20029;-67
2020/12/24 09:20:13;;;;;;;76.63;15.18;;;5.10;99.90;;;;;;5062479;28;19970;-67
2020/12/24 09:22:53;;;;;;;105.43;22.80;;;5.20;99.90;;;;;;5060736;28;20033;-70
2020/12/24 09:25:32;;;;;;;74.63;18.27;;;5.20;99.90;;;;;;5067607;28;20059;-67
2020/12/24 09:27:58;;;;;;;125.38;24.90;;;5.20;99.90;;;;;;5056907;28;20283;-67
2020/12/24 09:30:24;;;;;;;135.20;24.77;;;5.20;99.90;;;;;;5059574;28;20040;-67
2020/12/24 09:32:55;;;;;;;75.93;15.95;;;5.20;99.90;;;;;;5064351;28;20096;-67
2020/12/24 09:35:21;;;;;;;28.75;6.20;;;5.30;99.90;;;;;;5077984;28;20153;-67
2020/12/24 09:37:47;;;;;;;63.63;11.57;;;5.30;99.90;;;;;;5064731;28;20028;-68
2020/12/24 09:40:12;;;;;;;29.90;5.03;;;5.40;99.90;;;;;;5071511;28;20034;-67
2020/12/24 09:42:38;;;;;;;146.38;23.55;;;5.40;99.90;;;;;;5080811;28;20040;-69
2020/12/24 09:45:04;;;;;;;88.07;16.20;;;5.40;99.90;;;;;;5072952;28;20127;-68
2020/12/24 09:47:29;;;;;;;124.55;21.17;;;5.50;99.90;;;;;;5058045;28;20086;-67
2020/12/24 09:49:55;;;;;;;37.65;6.38;;;5.40;99.90;;;;;;5060235;28;20023;-68
2020/12/24 09:52:20;;;;;;;12.27;2.25;;;5.50;99.90;;;;;;5062201;28;20068;-67
2020/12/24 09:54:46;;;;;;;5.60;0.82;;;5.50;99.90;;;;;;5057396;28;20024;-66
2020/12/24 09:57:11;;;;;;;7.90;1.20;;;5.50;99.90;;;;;;5063783;28;20037;-67
2020/12/24 09:59:37;;;;;;;4.97;0.68;;;5.60;99.90;;;;;;5066593;28;20020;-67
2020/12/24 10:02:02;;;;;;;3.00;1.10;;;5.60;99.90;;;;;;5063985;28;20035;-67
2020/12/24 10:04:28;;;;;;;7.70;2.53;;;5.70;99.90;;;;;;5065900;28;20033;-68
2020/12/24 10:06:53;;;;;;;6.95;0.77;;;5.80;99.90;;;;;;5069193;28;20064;-67
2020/12/24 10:09:19;;;;;;;5.85;1.10;;;5.80;99.90;;;;;;5057478;28;20054;-66
2020/12/24 10:11:48;;;;;;;6.80;1.00;;;5.70;99.90;;;;;;5055910;28;20374;-66
2020/12/24 10:14:14;;;;;;;7.15;1.20;;;5.70;99.90;;;;;;5059237;28;20025;-67
2020/12/24 10:16:40;;;;;;;5.32;1.00;;;5.80;99.90;;;;;;5072022;28;20023;-66
2020/12/24 10:19:06;;;;;;;6.68;1.05;;;5.80;99.90;;;;;;5079932;28;20940;-68
2020/12/24 10:21:31;;;;;;;5.38;0.73;;;5.80;99.90;;;;;;5074421;28;20473;-67
2020/12/24 10:23:57;;;;;;;6.10;0.90;;;5.90;99.90;;;;;;5060061;28;20070;-68
2020/12/24 10:26:22;;;;;;;7.35;0.90;;;5.90;99.90;;;;;;5065065;28;20507;-70
2020/12/24 10:28:48;;;;;;;4.72;0.75;;;5.90;99.90;;;;;;5079547;28;21522;-68
2020/12/24 10:31:13;;;;;;;5.72;1.80;;;5.90;99.90;;;;;;5065182;28;20033;-68
2020/12/24 10:33:39;;;;;;;28.17;9.70;;;5.90;99.90;;;;;;5068509;28;20017;-67
2020/12/24 10:36:05;;;;;;;26.33;8.65;;;5.90;99.90;;;;;;5072688;28;20277;-68
2020/12/24 10:38:30;;;;;;;32.92;9.60;;;5.90;99.90;;;;;;5086098;28;20020;-67
2020/12/24 10:40:56;;;;;;;10.95;3.22;;;5.90;99.90;;;;;;5090084;28;20061;-66
2020/12/24 10:43:22;;;;;;;28.17;8.65;;;6.00;99.90;;;;;;5084853;28;20533;-67
2020/12/24 10:45:47;;;;;;;16.52;5.25;;;6.00;99.90;;;;;;5094553;28;20086;-66
2020/12/24 10:48:13;;;;;;;29.48;9.45;;;6.00;99.90;;;;;;5090207;28;20131;-66
2020/12/24 10:50:39;;;;;;;21.83;6.35;;;6.10;99.90;;;;;;5089608;28;20031;-68
2020/12/24 10:53:04;;;;;;;16.35;6.15;;;6.10;99.90;;;;;;5091905;28;20032;-67
2020/12/24 10:55:30;;;;;;;19.33;6.80;;;6.10;99.90;;;;;;5092746;28;20032;-67
2020/12/24 10:57:55;;;;;;;26.63;7.15;;;6.10;99.90;;;;;;5092094;28;20016;-68
2020/12/24 11:00:21;;;;;;;28.85;9.98;;;6.20;99.90;;;;;;5089071;28;20024;-67
2020/12/24 11:02:46;;;;;;;19.75;6.88;;;6.20;99.90;;;;;;5093664;28;20330;-68
2020/12/24 11:05:12;;;;;;;17.58;4.53;;;6.20;99.90;;;;;;5093797;28;20043;-68
2020/12/24 11:07:38;;;;;;;14.68;4.18;;;6.20;99.90;;;;;;5091953;28;20073;-69
2020/12/24 11:10:04;;;;;;;30.13;8.55;;;6.30;99.90;;;;;;5084179;28;20036;-68
2020/12/24 11:12:29;;;;;;;27.23;7.18;;;6.30;99.90;;;;;;5092270;28;20065;-67
2020/12/24 11:14:55;;;;;;;55.20;16.98;;;6.30;99.90;;;;;;5093915;28;20104;-68
2020/12/24 11:17:21;;;;;;;37.38;11.68;;;6.40;99.90;;;;;;5080501;28;20060;-69
2020/12/24 11:19:46;;;;;;;30.17;9.55;;;6.40;99.90;;;;;;5074255;28;20405;-69
2020/12/24 11:22:12;;;;;;;23.17;7.07;;;6.40;99.90;;;;;;5086934;28;20024;-68
2020/12/24 11:24:38;;;;;;;83.15;19.52;;;6.80;99.90;;;;;;5095119;28;20024;-68
2020/12/24 11:27:03;;;;;;;71.35;16.52;;;6.50;99.90;;;;;;5094484;28;20028;-69
2020/12/24 11:29:30;;;;;;;34.00;7.40;;;6.50;99.90;;;;;;5094578;28;20073;-67
2020/12/24 11:31:57;;;;;;;62.35;14.07;;;6.50;99.90;;;;;;5095035;28;20032;-67
2020/12/24 11:34:23;;;;;;;156.43;34.60;;;6.50;99.90;;;;;;5091963;28;20025;-67
2020/12/24 11:36:49;;;;;;;39.38;10.27;;;6.50;99.90;;;;;;5085992;28;20032;-68
2020/12/24 11:39:15;;;;;;;48.03;12.20;;;6.60;99.90;;;;;;5073442;28;20486;-68
2020/12/24 11:41:40;;;;;;;49.65;13.55;;;6.50;99.90;;;;;;5093598;28;20020;-69
2020/12/24 11:44:06;;;;;;;30.35;7.75;;;6.50;99.90;;;;;;5093085;28;20028;-68
2020/12/24 11:46:31;;;;;;;25.13;4.93;;;6.60;99.90;;;;;;5089298;28;20178;-69
2020/12/24 11:48:57;;;;;;;60.55;15.20;;;6.60;99.90;;;;;;5090703;28;20028;-68
2020/12/24 11:51:23;;;;;;;40.65;9.60;;;6.60;99.90;;;;;;5088787;28;20073;-68
2020/12/24 11:53:49;;;;;;;87.18;19.52;;;6.60;99.90;;;;;;5089853;28;20028;-69
2020/12/24 11:56:19;;;;;;;71.45;14.45;;;6.70;99.90;;;;;;5091010;28;20103;-68
2020/12/24 11:58:48;;;;;;;96.60;20.50;;;6.70;99.90;;;;;;5092964;28;20353;-68
2020/12/24 12:01:14;;;;;;;73.63;9.68;;;6.70;99.90;;;;;;5090083;28;20035;-70
2020/12/24 12:03:40;;;;;;;46.67;9.93;;;6.70;99.90;;;;;;5090921;28;20127;-68
2020/12/24 12:06:06;;;;;;;44.25;6.57;;;6.70;99.90;;;;;;5089984;28;20020;-67
2020/12/24 12:08:32;;;;;;;98.95;15.20;;;6.70;99.90;;;;;;5091173;28;20035;-68
2020/12/24 12:11:02;;;;;;;22.00;4.03;;;6.70;99.90;;;;;;5091171;28;20020;-69
2020/12/24 12:13:28;;;;;;;;;;;6.70;99.90;;;;;;5093066;28;20513;-70
2020/12/24 12:15:54;;;;;;;25.80;5.90;;;6.80;99.90;;;;;;5090293;28;19904;-69
2020/12/24 12:18:19;;;;;;;177.88;17.65;;;6.80;99.90;;;;;;5090655;28;20016;-68
2020/12/24 12:20:45;;;;;;;45.50;9.25;;;6.80;99.90;;;;;;5086921;28;20020;-68
2020/12/24 12:23:10;;;;;;;22.40;2.67;;;6.80;99.90;;;;;;5086879;28;20020;-68
2020/12/24 12:25:36;;;;;;;13.13;2.20;;;6.90;99.90;;;;;;5090992;28;20031;-67
2020/12/24 12:28:02;;;;;;;13.15;2.13;;;6.90;99.90;;;;;;5090955;28;20051;-66
2020/12/24 12:30:27;;;;;;;271.10;21.45;;;6.90;99.90;;;;;;5091271;28;20077;-67
2020/12/24 12:32:53;;;;;;;31.27;3.28;;;6.80;99.90;;;;;;5092354;28;20036;-67
2020/12/24 12:35:19;;;;;;;43.85;5.30;;;6.70;99.90;;;;;;5089464;28;20013;-67
2020/12/24 12:37:45;;;;;;;67.30;5.97;;;6.60;99.90;;;;;;5088736;28;20379;-67
2020/12/24 12:40:10;;;;;;;445.27;39.78;;;6.50;99.90;;;;;;5089844;28;20016;-68
2020/12/24 12:42:36;;;;;;;133.10;10.80;;;6.40;99.90;;;;;;5090414;28;20103;-67
2020/12/24 12:45:03;;;;;;;2.92;0.98;;;6.30;99.90;;;;;;5090626;28;20016;-67
2020/12/24 12:47:34;;;;;;;204.23;16.58;;;6.30;99.90;;;;;;5089176;28;20024;-68
2020/12/24 12:49:59;;;;;;;;;;;6.30;99.90;;;;;;5088866;28;20484;-68
2020/12/24 12:52:25;;;;;;;10.38;4.40;;;6.30;99.90;;;;;;5086922;28;19919;-67
2020/12/24 12:54:50;;;;;;;2.95;1.00;;;6.40;99.90;;;;;;5089115;28;20028;-67